Welcome to La Porte Aviation Services!

An aviation adventure awaits

Current Weather Conditions

Available data for KPPO from the past 2 hours
LA PORTE, IN
Metar
KPPO 201015Z AUTO 22007KT 10SM CLR M01/M04 A2988 RMK AO2 T10091036

10:15 UTC

Wind: 220° 7kt

Visibility: 10 SM

Sky:

Temp: -1 deg C / 30.2 deg F

Dewpoint: -4 deg C / 24.8 deg F

Pressure: 29.88 inHg

Connect with us on Facebook!

Facebook By Weblizar Powered By Weblizar